Time;durP1;ratioP1;P1;durP2;ratioP2;P2;SDS_P1;SDS_P2;PMS_P1;PMS_P2;Temp;Humidity;BMP_temperature;BMP_pressure;BME280_temperature;BME280_humidity;BME280_pressure;Samples;Min_cycle;Max_cycle;Signal;HPM_P1;HPM_P2
2024/01/02 00:00:47;;;;;;;5.13;3.63;;;5.60;99.90;;;;;;5034473;28;20089;-78
2024/01/02 00:03:12;;;;;;;8.50;3.35;;;5.60;99.90;;;;;;5032668;28;20081;-78
2024/01/02 00:05:38;;;;;;;7.55;3.42;;;5.90;99.90;;;;;;5034202;28;20366;-79
2024/01/02 00:08:04;;;;;;;6.18;3.53;;;5.60;99.90;;;;;;5033796;28;20085;-78
2024/01/02 00:10:30;;;;;;;7.22;3.85;;;5.60;99.90;;;;;;5033743;28;20137;-79
2024/01/02 00:12:58;;;;;;;5.90;3.40;;;5.70;99.90;;;;;;5016245;28;20060;-79
2024/01/02 00:15:24;;;;;;;7.78;3.65;;;5.60;99.90;;;;;;5032651;28;20512;-79
2024/01/02 00:17:49;;;;;;;5.15;3.70;;;5.70;99.90;;;;;;5032896;28;20478;-79
2024/01/02 00:20:15;;;;;;;6.95;3.45;;;5.70;99.90;;;;;;5032950;28;20056;-79
2024/01/02 00:22:41;;;;;;;8.77;4.15;;;5.70;99.90;;;;;;5016871;28;20586;-79
2024/01/02 00:25:07;;;;;;;4.80;3.80;;;5.70;99.90;;;;;;5032382;28;20047;-79
2024/01/02 00:27:33;;;;;;;4.80;3.50;;;5.70;99.90;;;;;;5032477;28;20092;-79
2024/01/02 00:29:58;;;;;;;6.72;3.83;;;5.70;99.90;;;;;;5032676;28;20084;-79
2024/01/02 00:32:24;;;;;;;4.30;3.20;;;5.70;99.90;;;;;;5033571;28;20561;-79
2024/01/02 00:34:51;;;;;;;4.15;3.75;;;5.70;99.90;;;;;;5033524;28;20378;-79
2024/01/02 00:37:17;;;;;;;4.10;3.72;;;5.70;99.90;;;;;;5032798;28;20437;-79
2024/01/02 00:39:42;;;;;;;6.40;4.22;;;5.80;99.90;;;;;;5033489;28;20121;-78
2024/01/02 00:42:08;;;;;;;5.75;3.78;;;5.70;99.90;;;;;;5033291;28;20092;-79
2024/01/02 00:44:34;;;;;;;5.03;3.85;;;5.70;99.90;;;;;;5032449;28;20053;-79
2024/01/02 00:46:59;;;;;;;4.25;3.95;;;6.00;99.90;;;;;;5032347;28;20397;-79
2024/01/02 00:49:25;;;;;;;4.22;3.65;;;5.70;99.90;;;;;;5031851;28;20069;-78
2024/01/02 00:51:51;;;;;;;3.88;3.45;;;5.70;99.90;;;;;;5033266;28;20049;-79
2024/01/02 00:54:16;;;;;;;4.90;3.45;;;5.70;99.90;;;;;;5032277;28;20397;-79
2024/01/02 00:56:42;;;;;;;6.38;4.22;;;5.70;99.90;;;;;;5032375;28;20041;-79
2024/01/02 00:59:08;;;;;;;6.90;4.45;;;5.70;99.90;;;;;;5032090;28;20505;-79
2024/01/02 01:01:33;;;;;;;5.15;3.97;;;5.70;99.90;;;;;;5032054;28;20121;-79
2024/01/02 01:03:59;;;;;;;7.13;3.90;;;5.70;99.90;;;;;;5032956;28;20045;-79
2024/01/02 01:06:25;;;;;;;5.90;4.00;;;5.70;99.90;;;;;;5032502;28;20049;-80
2024/01/02 01:08:51;;;;;;;7.32;4.18;;;5.70;99.90;;;;;;5032266;28;20060;-80
2024/01/02 01:11:18;;;;;;;5.07;4.57;;;5.70;99.90;;;;;;5032746;28;20081;-80
2024/01/02 01:13:44;;;;;;;4.95;4.53;;;5.70;99.90;;;;;;5032041;28;20536;-79
2024/01/02 01:16:10;;;;;;;6.03;4.90;;;5.80;99.90;;;;;;5016447;28;20390;-79
2024/01/02 01:18:36;;;;;;;7.85;4.53;;;5.70;99.90;;;;;;5032608;28;20048;-79
2024/01/02 01:21:03;;;;;;;5.20;4.72;;;5.80;99.90;;;;;;5033562;28;20118;-79
2024/01/02 01:23:29;;;;;;;9.82;4.93;;;5.80;99.90;;;;;;5032117;28;20056;-79
2024/01/02 01:25:54;;;;;;;4.93;4.53;;;5.80;99.90;;;;;;5032899;28;20045;-79
2024/01/02 01:28:20;;;;;;;6.70;4.80;;;5.80;99.90;;;;;;5015823;28;20048;-79
2024/01/02 01:30:46;;;;;;;7.57;5.40;;;5.80;99.90;;;;;;5035435;28;20053;-80
2024/01/02 01:33:11;;;;;;;6.05;4.30;;;5.80;99.90;;;;;;5035534;28;20056;-79
2024/01/02 01:35:37;;;;;;;9.00;5.13;;;5.80;99.90;;;;;;5036378;28;20081;-79
2024/01/02 01:38:03;;;;;;;8.48;5.55;;;5.80;99.90;;;;;;5035697;28;20041;-79
2024/01/02 01:40:28;;;;;;;9.07;5.72;;;5.80;99.90;;;;;;5035490;28;20520;-79
2024/01/02 01:42:54;;;;;;;6.72;4.80;;;5.80;99.90;;;;;;5035521;28;20048;-79
2024/01/02 01:45:20;;;;;;;7.40;5.43;;;5.80;99.90;;;;;;5018950;28;20462;-80
2024/01/02 01:47:46;;;;;;;9.90;6.38;;;5.80;99.90;;;;;;5035157;28;20049;-79
2024/01/02 01:50:14;;;;;;;10.57;6.13;;;5.80;99.90;;;;;;5019518;28;20088;-79
2024/01/02 01:52:40;;;;;;;7.32;5.53;;;5.80;99.90;;;;;;5019699;28;20054;-79
2024/01/02 01:55:07;;;;;;;6.68;5.82;;;5.80;99.90;;;;;;5018997;28;20049;-80
2024/01/02 01:57:33;;;;;;;10.45;6.25;;;5.80;99.90;;;;;;5018779;28;20049;-79
2024/01/02 01:59:59;;;;;;;11.70;6.75;;;5.80;99.90;;;;;;5035219;28;20134;-78
2024/01/02 02:02:25;;;;;;;7.53;6.22;;;5.80;99.90;;;;;;5035124;28;20088;-79
2024/01/02 02:04:53;;;;;;;7.65;5.97;;;5.80;99.90;;;;;;5036540;28;20444;-79
2024/01/02 02:07:19;;;;;;;6.10;5.55;;;5.80;99.90;;;;;;5035705;28;20473;-79
2024/01/02 02:09:45;;;;;;;9.70;6.05;;;5.90;99.90;;;;;;5034949;28;20056;-80
2024/01/02 02:12:10;;;;;;;9.50;5.53;;;5.90;99.90;;;;;;5035683;28;20129;-79
2024/01/02 02:14:36;;;;;;;9.85;6.25;;;5.90;99.90;;;;;;5035834;28;20509;-79
2024/01/02 02:17:02;;;;;;;9.40;6.47;;;5.90;99.90;;;;;;5034851;28;20053;-79
2024/01/02 02:19:27;;;;;;;6.40;5.80;;;5.90;99.90;;;;;;5035735;28;20045;-79
2024/01/02 02:21:55;;;;;;;9.00;6.47;;;5.90;99.90;;;;;;5034739;28;20071;-80
2024/01/02 02:24:21;;;;;;;7.88;5.75;;;5.90;99.90;;;;;;5018208;28;20060;-79
2024/01/02 02:26:47;;;;;;;7.82;7.07;;;5.90;99.90;;;;;;5018099;28;20050;-79
2024/01/02 02:29:12;;;;;;;9.85;6.25;;;5.90;99.90;;;;;;5019009;28;20348;-78
2024/01/02 02:31:38;;;;;;;8.88;6.00;;;5.90;99.90;;;;;;5018329;28;20053;-79
2024/01/02 02:34:04;;;;;;;9.77;6.30;;;5.90;99.90;;;;;;5018070;28;20050;-79
2024/01/02 02:36:29;;;;;;;6.05;5.35;;;6.10;99.90;;;;;;5034578;28;20046;-79
2024/01/02 02:38:55;;;;;;;6.65;5.53;;;5.90;99.90;;;;;;5034195;28;20072;-79
2024/01/02 02:41:21;;;;;;;10.30;5.93;;;5.90;99.90;;;;;;5033796;28;20056;-79
2024/01/02 02:43:46;;;;;;;9.35;5.47;;;6.00;99.90;;;;;;5034434;28;20389;-79
2024/01/02 02:46:12;;;;;;;10.63;5.20;;;6.00;99.90;;;;;;5034323;28;20045;-79
2024/01/02 02:48:38;;;;;;;7.30;5.78;;;6.00;99.90;;;;;;5033960;28;20097;-79
2024/01/02 02:51:03;;;;;;;9.93;6.25;;;6.00;99.90;;;;;;5034085;28;20088;-78
2024/01/02 02:53:29;;;;;;;8.85;5.80;;;6.00;99.90;;;;;;5034166;28;20089;-78
2024/01/02 02:55:55;;;;;;;6.90;4.55;;;6.10;99.90;;;;;;5017683;28;20076;-79
2024/01/02 02:58:20;;;;;;;6.38;4.63;;;6.00;99.90;;;;;;5035044;28;20052;-79
2024/01/02 03:00:46;;;;;;;6.40;4.65;;;6.00;99.90;;;;;;5017840;28;20061;-79
2024/01/02 03:03:12;;;;;;;6.20;4.72;;;6.00;99.90;;;;;;5035096;28;20470;-79
2024/01/02 03:05:37;;;;;;;5.38;4.57;;;6.00;99.90;;;;;;5017774;28;20489;-79
2024/01/02 03:08:03;;;;;;;5.20;4.72;;;6.00;99.90;;;;;;5034827;28;20417;-78
2024/01/02 03:10:29;;;;;;;4.15;3.75;;;6.00;99.90;;;;;;5017497;28;20402;-79
2024/01/02 03:12:55;;;;;;;8.65;4.30;;;6.00;99.90;;;;;;5034788;28;20045;-79
2024/01/02 03:15:20;;;;;;;5.05;4.55;;;6.00;99.90;;;;;;5033729;28;20041;-79
2024/01/02 03:17:46;;;;;;;7.90;4.03;;;6.00;99.90;;;;;;5033631;28;20125;-79
2024/01/02 03:20:12;;;;;;;4.32;3.75;;;6.10;99.90;;;;;;5033660;28;20095;-79
2024/01/02 03:22:37;;;;;;;4.93;4.32;;;6.00;99.90;;;;;;5033680;28;20081;-79
2024/01/02 03:25:04;;;;;;;4.57;3.78;;;6.40;99.90;;;;;;5017903;28;20431;-79
2024/01/02 03:27:29;;;;;;;6.18;4.05;;;6.00;99.90;;;;;;5017130;28;20482;-80
2024/01/02 03:29:55;;;;;;;4.63;4.15;;;6.00;99.90;;;;;;5033839;28;20056;-80
2024/01/02 03:32:21;;;;;;;6.30;3.97;;;6.00;99.90;;;;;;5017126;28;20386;-79
2024/01/02 03:34:50;;;;;;;8.30;4.13;;;6.10;99.90;;;;;;5017858;28;20047;-79
2024/01/02 03:37:16;;;;;;;5.68;3.63;;;6.10;99.90;;;;;;5033245;28;20053;-79
2024/01/02 03:39:42;;;;;;;7.72;3.60;;;6.10;99.90;;;;;;5016620;28;20136;-79
2024/01/02 03:42:08;;;;;;;4.60;3.35;;;6.10;99.90;;;;;;5033155;28;20136;-80
2024/01/02 03:44:33;;;;;;;7.30;3.70;;;6.10;99.90;;;;;;5034441;28;20049;-84
2024/01/02 03:46:59;;;;;;;5.95;3.72;;;6.10;99.90;;;;;;5033245;28;20053;-86
2024/01/02 03:49:25;;;;;;;5.47;4.22;;;6.10;99.90;;;;;;5016560;28;20077;-85
2024/01/02 03:51:51;;;;;;;6.15;4.35;;;6.10;99.90;;;;;;5032596;28;20057;-83
2024/01/02 03:54:17;;;;;;;7.50;4.32;;;6.10;99.90;;;;;;5016964;28;20057;-84
2024/01/02 03:56:43;;;;;;;3.95;3.65;;;6.10;99.90;;;;;;5016614;28;20402;-84
2024/01/02 03:59:09;;;;;;;4.95;4.10;;;6.10;99.90;;;;;;5017108;28;20463;-84
2024/01/02 04:01:42;;;;;;;8.00;4.07;;;6.10;99.90;;;;;;5017352;28;20072;-85
2024/01/02 04:04:08;;;;;;;4.63;3.97;;;6.10;99.90;;;;;;5032967;28;20474;-84
2024/01/02 04:06:34;;;;;;;7.07;4.10;;;6.10;99.90;;;;;;5000164;28;20132;-86
2024/01/02 04:08:59;;;;;;;4.15;3.75;;;6.10;99.90;;;;;;5016380;28;20529;-84
2024/01/02 04:11:25;;;;;;;5.93;4.88;;;6.10;99.90;;;;;;5016386;28;20076;-84
2024/01/02 04:13:51;;;;;;;4.13;3.72;;;6.10;99.90;;;;;;5016280;28;20061;-86
2024/01/02 04:16:16;;;;;;;5.95;4.47;;;6.40;99.90;;;;;;5017088;28;20052;-86
2024/01/02 04:18:44;;;;;;;7.93;4.13;;;6.10;99.90;;;;;;5016947;28;20356;-84
2024/01/02 04:21:10;;;;;;;4.85;3.97;;;6.10;99.90;;;;;;5032743;28;20096;-85
2024/01/02 04:23:36;;;;;;;6.32;4.45;;;6.10;99.90;;;;;;5016231;28;20084;-82
2024/01/02 04:26:01;;;;;;;6.70;4.30;;;6.10;99.90;;;;;;5016225;28;20053;-83
2024/01/02 04:28:27;;;;;;;4.32;4.03;;;6.10;99.90;;;;;;5000057;28;20049;-83
2024/01/02 04:30:53;;;;;;;4.63;4.22;;;6.10;99.90;;;;;;5032498;28;20489;-86
2024/01/02 04:33:19;;;;;;;4.72;4.07;;;6.10;99.90;;;;;;5016178;28;20482;-83
2024/01/02 04:35:45;;;;;;;6.57;3.97;;;6.10;99.90;;;;;;5032417;28;20045;-82
2024/01/02 04:38:10;;;;;;;5.88;3.90;;;6.10;99.90;;;;;;4999758;28;20042;-83
2024/01/02 04:40:36;;;;;;;4.30;3.88;;;6.20;99.90;;;;;;5032554;28;20045;-81
2024/01/02 04:43:02;;;;;;;4.18;3.85;;;6.10;99.90;;;;;;5000568;28;20489;-83
2024/01/02 04:45:27;;;;;;;5.65;3.80;;;6.10;99.90;;;;;;4999675;28;20085;-84
2024/01/02 04:47:53;;;;;;;3.90;3.60;;;6.10;99.90;;;;;;5015888;28;20041;-83
2024/01/02 04:50:19;;;;;;;4.75;3.53;;;6.20;99.90;;;;;;4999923;28;20049;-83
2024/01/02 04:52:44;;;;;;;4.32;3.78;;;6.20;99.90;;;;;;4999676;28;20071;-82
2024/01/02 04:55:10;;;;;;;5.07;4.55;;;6.20;99.90;;;;;;5032670;28;20043;-84
2024/01/02 04:57:36;;;;;;;4.50;4.10;;;6.20;99.90;;;;;;5015768;28;20053;-83
2024/01/02 05:00:02;;;;;;;4.38;3.97;;;6.20;99.90;;;;;;5015953;28;20131;-83
2024/01/02 05:02:27;;;;;;;5.30;4.80;;;6.20;99.90;;;;;;4999644;28;20045;-82
2024/01/02 05:04:53;;;;;;;5.00;4.60;;;6.20;99.90;;;;;;5004309;28;20053;-82
2024/01/02 05:07:19;;;;;;;4.78;4.47;;;6.20;99.90;;;;;;5019933;28;20152;-82
2024/01/02 05:09:44;;;;;;;4.65;4.30;;;6.20;99.90;;;;;;5036264;28;20045;-83
2024/01/02 05:12:10;;;;;;;4.53;4.13;;;6.20;99.90;;;;;;5019705;28;20045;-88
2024/01/02 05:14:36;;;;;;;4.80;4.35;;;6.20;99.90;;;;;;5020495;28;20203;-84
2024/01/02 05:17:02;;;;;;;5.22;4.72;;;6.70;99.90;;;;;;5036133;28;20049;-83
2024/01/02 05:19:28;;;;;;;4.93;4.30;;;6.20;99.90;;;;;;5003159;28;20037;-83
2024/01/02 05:21:53;;;;;;;5.25;4.85;;;6.20;99.90;;;;;;5020459;28;20368;-83
2024/01/02 05:24:19;;;;;;;5.20;4.70;;;6.20;99.90;;;;;;5020212;28;20049;-83
2024/01/02 05:26:45;;;;;;;4.97;4.57;;;6.20;99.90;;;;;;5019341;28;20057;-83
2024/01/02 05:29:10;;;;;;;5.25;4.82;;;6.20;99.90;;;;;;5019429;28;20524;-83
2024/01/02 05:31:36;;;;;;;4.97;4.68;;;6.10;99.90;;;;;;5003033;28;20064;-84
2024/01/02 05:34:02;;;;;;;4.78;4.57;;;6.20;99.90;;;;;;5020128;28;20049;-82
2024/01/02 05:36:27;;;;;;;4.53;4.22;;;6.20;99.90;;;;;;5019421;28;20045;-81
2024/01/02 05:38:53;;;;;;;4.78;4.38;;;6.10;99.90;;;;;;5019892;28;20037;-82
2024/01/02 05:41:19;;;;;;;4.70;4.40;;;6.10;99.90;;;;;;5002979;28;20133;-82
2024/01/02 05:43:44;;;;;;;4.45;4.05;;;6.20;99.90;;;;;;5019085;28;20050;-83
2024/01/02 05:46:10;;;;;;;4.47;4.10;;;6.10;99.90;;;;;;5035498;28;20068;-83
2024/01/02 05:48:36;;;;;;;4.68;4.28;;;6.10;99.90;;;;;;5018719;28;20061;-81
2024/01/02 05:51:04;;;;;;;5.53;4.20;;;6.10;99.90;;;;;;5019009;28;20053;-83
2024/01/02 05:53:30;;;;;;;4.22;3.92;;;6.10;99.90;;;;;;5002710;28;20091;-84
2024/01/02 05:55:55;;;;;;;5.00;4.63;;;6.10;99.90;;;;;;5035264;28;20042;-88
2024/01/02 05:58:21;;;;;;;4.35;4.05;;;6.10;99.90;;;;;;5018666;28;20044;-88
2024/01/02 06:00:47;;;;;;;4.28;4.07;;;6.10;99.90;;;;;;5018843;28;20046;-84
2024/01/02 06:03:12;;;;;;;5.10;4.70;;;6.20;99.90;;;;;;5018754;28;20419;-84
2024/01/02 06:05:38;;;;;;;4.55;4.18;;;6.20;99.90;;;;;;5002413;28;20053;-83
2024/01/02 06:08:04;;;;;;;4.03;3.63;;;6.70;99.90;;;;;;5018665;28;20095;-86
2024/01/02 06:10:29;;;;;;;4.13;3.83;;;6.20;99.90;;;;;;5018535;28;20049;-85
2024/01/02 06:12:55;;;;;;;4.25;3.90;;;6.20;99.90;;;;;;5018050;28;20046;-82
2024/01/02 06:15:21;;;;;;;4.07;3.78;;;6.20;99.90;;;;;;5017584;28;20049;-84
2024/01/02 06:17:46;;;;;;;4.07;3.83;;;6.20;99.90;;;;;;5018371;28;20046;-84
2024/01/02 06:20:12;;;;;;;3.97;3.78;;;6.20;99.90;;;;;;5018626;28;20486;-85
2024/01/02 06:22:38;;;;;;;4.10;3.90;;;6.20;99.90;;;;;;5035301;28;20505;-83
2024/01/02 06:25:10;;;;;;;4.00;3.80;;;6.20;99.90;;;;;;5018368;28;20045;-83
2024/01/02 06:27:36;;;;;;;4.18;3.90;;;6.30;99.90;;;;;;5018156;28;20061;-85
2024/01/02 06:30:05;;;;;;;4.32;4.03;;;6.30;99.90;;;;;;5018161;28;20079;-85
2024/01/02 06:32:33;;;;;;;4.22;4.03;;;6.30;99.90;;;;;;5002120;28;20049;-83
2024/01/02 06:34:59;;;;;;;4.47;4.10;;;6.30;99.90;;;;;;5002051;28;20045;-85
2024/01/02 06:37:25;;;;;;;4.18;3.97;;;6.30;99.90;;;;;;5034645;28;20045;-83
2024/01/02 06:39:51;;;;;;;3.90;3.70;;;6.50;99.90;;;;;;5034358;28;20055;-85
2024/01/02 06:42:17;;;;;;;4.30;4.07;;;6.40;99.90;;;;;;5001859;28;20140;-84
2024/01/02 06:44:42;;;;;;;4.13;3.92;;;6.40;99.90;;;;;;5035296;28;20048;-83
2024/01/02 06:47:08;;;;;;;4.07;3.88;;;6.40;99.90;;;;;;5002452;28;20137;-85
2024/01/02 06:49:34;;;;;;;3.97;3.78;;;6.40;99.90;;;;;;5001249;28;20061;-84
2024/01/02 06:51:59;;;;;;;4.10;3.90;;;6.60;99.90;;;;;;5017550;28;20457;-85
2024/01/02 06:54:25;;;;;;;4.95;4.65;;;6.40;99.90;;;;;;5001441;28;20049;-85
2024/01/02 06:56:51;;;;;;;4.20;3.95;;;6.50;99.90;;;;;;5001684;28;20042;-84
2024/01/02 06:59:16;;;;;;;4.32;4.13;;;6.50;99.90;;;;;;5017432;28;20053;-85
2024/01/02 07:01:42;;;;;;;5.03;4.80;;;6.40;99.90;;;;;;5017445;28;20047;-83
2024/01/02 07:04:08;;;;;;;4.57;4.38;;;6.50;99.90;;;;;;5017692;28;20045;-84
2024/01/02 07:06:33;;;;;;;4.28;4.07;;;6.50;99.90;;;;;;5034729;28;20057;-85
2024/01/02 07:08:59;;;;;;;4.85;4.55;;;6.90;99.90;;;;;;5001299;28;20099;-85
2024/01/02 07:11:25;;;;;;;4.63;4.32;;;6.50;99.90;;;;;;5017557;28;20376;-84
2024/01/02 07:13:50;;;;;;;4.75;4.55;;;6.50;99.90;;;;;;5001535;28;20046;-83
2024/01/02 07:16:16;;;;;;;4.85;4.65;;;6.60;99.90;;;;;;5033787;28;20063;-82
2024/01/02 07:18:42;;;;;;;4.40;4.20;;;6.50;99.90;;;;;;5017158;28;20051;-83
2024/01/02 07:21:08;;;;;;;4.65;4.45;;;6.50;99.90;;;;;;5017486;28;20429;-83
2024/01/02 07:23:34;;;;;;;4.32;4.13;;;6.60;99.90;;;;;;5017633;28;20045;-83
2024/01/02 07:25:59;;;;;;;4.75;4.55;;;6.80;99.90;;;;;;5033376;28;20057;-84
2024/01/02 07:28:25;;;;;;;5.03;4.72;;;6.60;99.90;;;;;;5017069;28;20402;-83
2024/01/02 07:30:51;;;;;;;4.65;4.40;;;6.60;99.90;;;;;;5017115;28;20124;-83
2024/01/02 07:33:17;;;;;;;5.45;5.05;;;6.70;99.90;;;;;;5017115;28;20048;-83
2024/01/02 07:35:43;;;;;;;4.78;4.47;;;6.70;99.90;;;;;;5017008;28;20099;-83
2024/01/02 07:38:08;;;;;;;4.90;4.60;;;6.70;99.90;;;;;;5000664;28;20073;-83
2024/01/02 07:40:34;;;;;;;5.10;4.80;;;6.80;99.90;;;;;;5017262;28;20482;-83
2024/01/02 07:43:00;;;;;;;5.18;4.88;;;6.80;99.90;;;;;;5000442;28;20474;-84
2024/01/02 07:45:27;;;;;;;4.90;4.60;;;6.90;99.90;;;;;;5000226;28;20055;-82
2024/01/02 07:47:52;;;;;;;5.75;5.35;;;6.80;99.90;;;;;;5016229;28;20060;-83
2024/01/02 07:50:18;;;;;;;5.40;5.10;;;6.90;99.90;;;;;;5016447;28;20053;-84
2024/01/02 07:52:44;;;;;;;5.80;5.40;;;6.90;99.90;;;;;;5016819;28;20037;-82
2024/01/02 07:55:11;;;;;;;6.45;6.00;;;6.90;99.90;;;;;;5017670;28;20055;-82
2024/01/02 07:57:37;;;;;;;6.35;5.85;;;6.90;99.90;;;;;;5016545;28;20119;-82
2024/01/02 08:00:03;;;;;;;6.10;5.60;;;7.10;99.90;;;;;;5016700;28;20056;-83
2024/01/02 08:02:29;;;;;;;6.15;5.75;;;7.10;99.90;;;;;;5016589;28;20371;-83
2024/01/02 08:04:55;;;;;;;6.65;6.15;;;7.20;99.90;;;;;;5033008;28;20055;-82
2024/01/02 08:07:21;;;;;;;6.32;5.93;;;7.20;99.90;;;;;;5016347;28;20046;-84
2024/01/02 08:09:46;;;;;;;5.93;5.53;;;7.20;99.90;;;;;;5036748;28;20049;-86
2024/01/02 08:12:12;;;;;;;6.10;5.60;;;7.40;99.90;;;;;;5007253;28;20049;-86
2024/01/02 08:14:38;;;;;;;5.85;5.45;;;7.50;99.90;;;;;;5004318;28;20056;-84
2024/01/02 08:17:04;;;;;;;5.63;5.25;;;7.50;99.90;;;;;;5016247;28;20041;-86
2024/01/02 08:19:30;;;;;;;6.43;5.93;;;7.70;99.90;;;;;;5000637;28;20103;-87
2024/01/02 08:21:55;;;;;;;6.38;5.88;;;7.90;99.90;;;;;;5000261;28;20111;-87
2024/01/02 08:24:21;;;;;;;6.13;5.63;;;7.90;99.90;;;;;;5016410;28;20482;-88
2024/01/02 08:26:47;;;;;;;7.90;7.30;;;8.00;99.90;;;;;;5000976;28;20060;-88
2024/01/02 08:29:12;;;;;;;6.40;5.90;;;8.00;99.90;;;;;;4999696;28;20037;-85
2024/01/02 08:31:38;;;;;;;7.22;6.35;;;8.20;99.90;;;;;;5015919;28;20095;-85
2024/01/02 08:34:05;;;;;;;7.20;6.60;;;8.20;99.90;;;;;;5016498;28;20053;-88
2024/01/02 08:36:30;;;;;;;7.35;6.85;;;8.30;99.90;;;;;;5016575;28;20045;-87
2024/01/02 08:38:57;;;;;;;6.28;5.65;;;8.40;99.90;;;;;;5015500;28;20147;-89
2024/01/02 08:41:23;;;;;;;6.75;6.18;;;8.40;99.90;;;;;;4999963;28;20053;-85
2024/01/02 08:43:48;;;;;;;7.63;6.82;;;8.50;99.90;;;;;;5016987;28;20045;-86
2024/01/02 08:46:14;;;;;;;6.90;6.30;;;8.60;99.90;;;;;;5033248;28;20169;-87
2024/01/02 08:48:40;;;;;;;7.03;6.40;;;8.60;99.90;;;;;;4999647;28;20111;-87
2024/01/02 08:51:05;;;;;;;7.65;6.82;;;8.60;99.90;;;;;;5016058;28;20049;-87
2024/01/02 08:53:32;;;;;;;6.22;5.57;;;8.80;99.90;;;;;;4999858;28;20124;-84
2024/01/02 08:55:58;;;;;;;6.70;5.93;;;8.70;99.90;;;;;;5016293;28;20448;-83
2024/01/02 08:58:24;;;;;;;7.75;6.05;;;8.80;99.90;;;;;;5000277;28;20042;-82
2024/01/02 09:00:50;;;;;;;6.47;5.63;;;8.90;99.90;;;;;;5016163;28;20083;-84
2024/01/02 09:03:16;;;;;;;5.97;5.38;;;9.00;99.90;;;;;;4999561;28;20421;-82
2024/01/02 09:05:42;;;;;;;7.63;6.15;;;8.90;99.90;;;;;;5016108;28;20037;-83
2024/01/02 09:08:08;;;;;;;8.48;6.60;;;9.00;99.90;;;;;;5032239;28;20061;-85
2024/01/02 09:10:34;;;;;;;8.35;6.13;;;9.10;99.90;;;;;;5015963;28;20505;-85
2024/01/02 09:12:59;;;;;;;7.47;6.65;;;9.10;99.90;;;;;;5015652;28;20049;-88
2024/01/02 09:15:25;;;;;;;8.32;7.05;;;9.30;99.90;;;;;;5000402;28;20049;-91
2024/01/02 09:17:51;;;;;;;7.85;5.65;;;9.40;99.90;;;;;;4999878;28;20372;-89
2024/01/02 09:20:16;;;;;;;8.27;5.68;;;9.40;99.90;;;;;;5015470;28;20136;-87
2024/01/02 09:22:42;;;;;;;6.70;5.60;;;9.50;99.90;;;;;;4999698;28;20049;-84
2024/01/02 09:25:11;;;;;;;7.03;5.53;;;9.50;99.90;;;;;;5016524;28;20038;-84
2024/01/02 09:27:38;;;;;;;7.75;4.85;;;9.60;99.90;;;;;;5015714;28;20099;-85
2024/01/02 09:30:04;;;;;;;7.20;5.25;;;9.60;99.90;;;;;;5015395;28;20049;-84
2024/01/02 09:32:31;;;;;;;10.80;5.50;;;9.60;99.90;;;;;;5015842;28;20045;-84
2024/01/02 09:34:56;;;;;;;8.63;5.22;;;9.70;99.90;;;;;;5015809;28;20054;-85
2024/01/02 09:37:22;;;;;;;8.32;4.90;;;9.70;99.90;;;;;;5000151;28;20136;-84
2024/01/02 09:39:48;;;;;;;8.80;5.50;;;9.80;99.90;;;;;;5031829;28;20072;-85
2024/01/02 09:42:46;;;;;;;5.35;4.07;;;9.80;99.90;;;;;;5031972;28;20398;-85
2024/01/02 09:45:25;;;;;;;6.47;4.40;;;9.90;99.90;;;;;;4992998;28;20061;-83
2024/01/02 09:48:28;;;;;;;7.70;4.63;;;9.90;99.90;;;;;;5031763;28;20083;-86
2024/01/02 09:50:56;;;;;;;8.93;4.57;;;10.00;99.90;;;;;;5034433;28;20136;-86
2024/01/02 09:53:41;;;;;;;10.20;4.40;;;10.00;99.90;;;;;;5035824;28;20449;-83
2024/01/02 09:56:15;;;;;;;9.10;4.57;;;10.10;99.90;;;;;;5019359;28;20393;-84
2024/01/02 09:59:02;;;;;;;8.57;5.03;;;10.10;99.90;;;;;;5019083;28;20100;-84
2024/01/02 10:01:56;;;;;;;12.98;4.45;;;10.10;99.90;;;;;;5035752;28;20050;-83
2024/01/02 10:04:32;;;;;;;6.60;3.80;;;10.20;99.90;;;;;;4997418;28;20140;-82
2024/01/02 10:07:25;;;;;;;8.23;3.80;;;10.20;99.90;;;;;;5018819;28;20099;-84
2024/01/02 10:10:08;;;;;;;9.25;4.13;;;10.20;99.90;;;;;;5035463;28;20054;-84
2024/01/02 10:12:59;;;;;;;9.65;4.05;;;10.20;99.90;;;;;;5019570;28;20049;-84
2024/01/02 10:15:31;;;;;;;5.50;3.92;;;10.20;99.90;;;;;;5035485;28;20057;-84
2024/01/02 10:18:13;;;;;;;6.70;4.00;;;10.20;99.90;;;;;;5018816;28;20049;-82
2024/01/02 10:20:48;;;;;;;5.43;4.30;;;10.20;99.90;;;;;;5018499;28;20049;-83
2024/01/02 10:23:33;;;;;;;8.30;4.45;;;10.20;99.90;;;;;;5018463;28;20049;-84
2024/01/02 10:26:01;;;;;;;8.93;4.50;;;10.20;99.90;;;;;;5034922;28;20045;-84
2024/01/02 10:28:29;;;;;;;9.93;4.55;;;10.30;99.90;;;;;;5018632;28;20123;-83
2024/01/02 10:31:06;;;;;;;8.30;4.80;;;10.20;99.90;;;;;;5034639;28;20050;-81
2024/01/02 10:33:43;;;;;;;6.30;5.70;;;10.30;99.90;;;;;;5035663;28;20114;-86
2024/01/02 10:36:16;;;;;;;12.50;6.05;;;10.30;99.90;;;;;;5019047;28;20437;-82
2024/01/02 10:39:09;;;;;;;9.65;5.85;;;10.40;99.90;;;;;;5018412;28;20077;-85
2024/01/02 10:41:57;;;;;;;10.50;5.55;;;10.40;99.90;;;;;;5035492;28;20371;-85
2024/01/02 10:44:49;;;;;;;8.45;5.68;;;10.40;99.90;;;;;;5018406;28;20089;-84
2024/01/02 10:47:29;;;;;;;9.48;6.30;;;10.40;99.90;;;;;;5035332;28;20045;-85
2024/01/02 10:50:01;;;;;;;7.90;5.25;;;10.40;99.90;;;;;;5034983;28;20061;-82
2024/01/02 10:52:53;;;;;;;10.55;5.53;;;10.50;99.90;;;;;;5018729;28;20056;-84
2024/01/02 10:55:26;;;;;;;9.82;5.38;;;10.50;99.90;;;;;;5017884;28;20142;-84
2024/01/02 10:58:00;;;;;;;8.38;5.50;;;10.50;99.90;;;;;;5034529;28;20045;-83
2024/01/02 11:00:31;;;;;;;10.55;5.43;;;10.50;99.90;;;;;;5017167;28;20053;-81
2024/01/02 11:03:07;;;;;;;8.75;4.75;;;10.50;99.90;;;;;;5033762;28;20502;-85
2024/01/02 11:05:43;;;;;;;7.63;5.07;;;10.60;99.90;;;;;;5017533;28;20057;-84
2024/01/02 11:08:38;;;;;;;9.43;4.97;;;10.50;99.90;;;;;;5017438;28;20508;-84
2024/01/02 11:11:06;;;;;;;10.40;5.30;;;10.60;99.90;;;;;;5013178;28;20057;-84
2024/01/02 11:13:38;;;;;;;9.50;4.82;;;10.60;99.90;;;;;;5044218;28;20125;-85
2024/01/02 11:16:11;;;;;;;12.98;5.63;;;10.60;99.90;;;;;;5017599;28;20042;-84
2024/01/02 11:18:40;;;;;;;11.02;5.75;;;10.70;99.90;;;;;;5034109;28;20128;-85
2024/01/02 11:21:06;;;;;;;6.55;5.00;;;10.70;99.90;;;;;;5017136;28;20053;-84
2024/01/02 11:23:40;;;;;;;9.80;5.25;;;10.70;99.90;;;;;;5017386;28;20091;-86
2024/01/02 11:26:20;;;;;;;14.95;5.10;;;10.70;99.90;;;;;;5033864;28;20045;-84
2024/01/02 11:28:49;;;;;;;11.68;5.15;;;10.70;99.90;;;;;;5033504;28;20107;-84
2024/01/02 11:31:16;;;;;;;11.55;7.43;;;10.70;99.90;;;;;;5016910;28;20490;-83
2024/01/02 11:33:56;;;;;;;8.57;5.32;;;10.70;99.90;;;;;;5017413;28;20049;-82
2024/01/02 11:36:48;;;;;;;12.05;5.75;;;10.70;99.90;;;;;;5033014;28;20050;-85
2024/01/02 11:39:18;;;;;;;10.73;5.80;;;10.70;99.90;;;;;;5033807;28;20137;-85
2024/01/02 11:42:09;;;;;;;12.20;6.18;;;10.70;99.90;;;;;;5033043;28;20085;-84
2024/01/02 11:44:41;;;;;;;11.65;6.32;;;10.60;99.90;;;;;;5016570;28;20052;-85
2024/01/02 11:47:25;;;;;;;9.32;6.20;;;10.60;99.90;;;;;;5033404;28;20041;-84
2024/01/02 11:49:57;;;;;;;10.48;6.25;;;10.60;99.90;;;;;;5015980;28;20480;-82
2024/01/02 11:52:23;;;;;;;10.25;5.78;;;10.60;99.90;;;;;;5017498;28;20053;-82
2024/01/02 11:55:04;;;;;;;14.00;6.00;;;10.60;99.90;;;;;;5033020;28;20474;-83
2024/01/02 11:57:52;;;;;;;12.93;6.35;;;10.60;99.90;;;;;;5016312;28;20060;-82
2024/01/02 12:00:50;;;;;;;11.98;6.30;;;10.60;99.90;;;;;;5016622;28;20454;-85
2024/01/02 12:03:35;;;;;;;11.05;7.63;;;10.60;99.90;;;;;;5033275;28;20041;-82
2024/01/02 12:06:12;;;;;;;13.38;7.00;;;10.60;99.90;;;;;;5033803;28;20064;-82
2024/01/02 12:08:45;;;;;;;12.65;7.30;;;10.60;99.90;;;;;;5017363;28;20049;-83
2024/01/02 12:11:17;;;;;;;13.32;7.55;;;10.60;99.90;;;;;;5016518;28;20136;-84
2024/01/02 12:14:00;;;;;;;11.00;7.18;;;10.60;99.90;;;;;;5015476;28;20487;-83
2024/01/02 12:16:29;;;;;;;14.45;7.13;;;10.60;99.90;;;;;;5032694;28;20053;-83
2024/01/02 12:18:59;;;;;;;10.10;6.90;;;10.60;99.90;;;;;;5016728;28;20037;-85
2024/01/02 12:21:30;;;;;;;9.82;7.18;;;10.60;99.90;;;;;;5016828;28;20046;-87
2024/01/02 12:23:56;;;;;;;16.83;7.07;;;10.60;99.90;;;;;;5032624;28;20053;-83
2024/01/02 12:26:26;;;;;;;16.33;7.00;;;10.60;99.90;;;;;;5015920;28;20045;-82
2024/01/02 12:28:54;;;;;;;16.83;8.30;;;10.60;99.90;;;;;;5033258;28;20055;-84
2024/01/02 12:31:29;;;;;;;23.45;8.38;;;10.60;99.90;;;;;;5017612;28;20053;-83
2024/01/02 12:34:09;;;;;;;15.05;7.47;;;10.60;99.90;;;;;;5033429;28;20052;-81
2024/01/02 12:37:04;;;;;;;16.20;8.32;;;10.60;99.90;;;;;;5016284;28;20053;-82
2024/01/02 12:39:37;;;;;;;8.82;7.70;;;10.60;99.90;;;;;;5016259;28;20037;-86
2024/01/02 12:42:08;;;;;;;10.90;8.80;;;10.60;99.90;;;;;;5016516;28;20057;-80
2024/01/02 12:44:35;;;;;;;14.45;8.40;;;10.70;99.90;;;;;;5017309;28;20426;-82
2024/01/02 12:47:05;;;;;;;13.07;8.48;;;10.60;99.90;;;;;;5016310;28;20103;-82
2024/01/02 12:49:40;;;;;;;16.65;8.57;;;10.60;99.90;;;;;;5015673;28;20066;-79
2024/01/02 12:52:11;;;;;;;12.13;9.02;;;10.60;99.90;;;;;;5016725;28;20399;-80
2024/01/02 12:54:44;;;;;;;12.75;7.97;;;10.60;99.90;;;;;;5033036;28;20423;-80
2024/01/02 12:57:11;;;;;;;11.40;8.32;;;10.60;99.90;;;;;;5015627;28;20050;-80
2024/01/02 12:59:38;;;;;;;14.13;8.70;;;10.60;99.90;;;;;;5015738;28;20453;-80